Time;durP1;ratioP1;P1;durP2;ratioP2;P2;SDS_P1;SDS_P2;PMS_P1;PMS_P2;Temp;Humidity;BMP_temperature;BMP_pressure;BME280_temperature;BME280_humidity;BME280_pressure;Samples;Min_cycle;Max_cycle;Signal;HPM_P1;HPM_P2
2022/05/23 00:00:49;;;;;;;4.13;2.97;;;20.30;89.90;;;;;;5047720;28;20458;-69
2022/05/23 00:03:15;;;;;;;3.83;3.43;;;20.20;90.00;;;;;;5048593;28;20473;-68
2022/05/23 00:05:41;;;;;;;3.73;3.43;;;20.20;90.10;;;;;;5034161;28;20462;-69
2022/05/23 00:08:06;;;;;;;3.53;3.27;;;20.20;90.10;;;;;;5040184;28;20597;-69
2022/05/23 00:10:32;;;;;;;3.60;3.30;;;20.20;90.20;;;;;;5043629;28;20239;-69
2022/05/23 00:12:58;;;;;;;3.07;2.80;;;20.20;90.20;;;;;;5041514;28;20730;-70
2022/05/23 00:15:24;;;;;;;3.60;3.30;;;20.20;90.30;;;;;;5029075;28;20697;-69
2022/05/23 00:17:50;;;;;;;2.80;2.60;;;20.10;90.40;;;;;;5029610;28;20319;-68
2022/05/23 00:20:22;;;;;;;4.33;3.37;;;20.00;90.50;;;;;;5041139;28;20236;-69
2022/05/23 00:22:48;;;;;;;3.57;3.27;;;20.10;90.60;;;;;;5041594;28;20458;-73
2022/05/23 00:25:14;;;;;;;4.47;3.20;;;20.10;90.50;;;;;;5048456;28;20464;-67
2022/05/23 00:27:42;;;;;;;3.90;3.20;;;20.00;90.50;;;;;;5047813;28;20211;-70
2022/05/23 00:30:18;;;;;;;4.37;3.10;;;20.10;90.60;;;;;;5032908;28;20496;-69
2022/05/23 00:35:28;;;;;;;2.60;2.40;;;20.00;90.60;;;;;;5044194;28;20955;-68
2022/05/23 00:37:57;;;;;;;3.47;3.17;;;20.00;90.60;;;;;;5047425;28;20531;-68
2022/05/23 00:40:22;;;;;;;4.33;3.50;;;20.00;90.50;;;;;;5048157;28;20989;-69
2022/05/23 00:45:34;;;;;;;4.37;3.97;;;20.00;90.50;;;;;;5048633;28;20234;-69
2022/05/23 00:48:00;;;;;;;4.40;3.27;;;20.00;90.60;;;;;;5050221;28;20474;-68
2022/05/23 00:50:28;;;;;;;3.23;2.93;;;20.00;90.50;;;;;;5054507;28;20451;-68
2022/05/23 00:52:56;;;;;;;2.90;2.70;;;20.00;90.50;;;;;;5052843;28;20450;-68
2022/05/23 00:55:30;;;;;;;4.23;3.63;;;19.90;90.40;;;;;;5068333;28;20486;-69
2022/05/23 00:58:03;;;;;;;3.17;2.93;;;20.00;90.50;;;;;;5046749;28;20454;-69
2022/05/23 01:00:29;;;;;;;4.50;3.37;;;19.90;90.60;;;;;;5051985;28;20480;-70
2022/05/23 01:02:59;;;;;;;5.60;3.37;;;19.90;90.70;;;;;;5051872;28;20457;-69
2022/05/23 01:05:26;;;;;;;3.60;3.30;;;19.80;90.70;;;;;;5068036;28;20438;-68
2022/05/23 01:07:53;;;;;;;3.97;3.57;;;19.80;90.90;;;;;;5051870;28;20455;-69
2022/05/23 01:10:19;;;;;;;3.83;3.53;;;19.80;91.00;;;;;;5034804;28;20997;-69
2022/05/23 01:12:49;;;;;;;3.80;3.50;;;19.80;91.10;;;;;;5038240;28;20498;-68
2022/05/23 01:15:19;;;;;;;3.90;3.37;;;19.80;91.00;;;;;;5044038;28;21021;-68
2022/05/23 01:17:45;;;;;;;3.57;3.27;;;19.70;91.10;;;;;;5050906;28;20577;-69
2022/05/23 01:20:12;;;;;;;4.03;3.73;;;19.70;91.10;;;;;;5045726;28;20545;-69
2022/05/23 01:22:57;;;;;;;3.40;3.10;;;19.70;91.20;;;;;;5044891;28;20224;-70
2022/05/23 01:25:38;;;;;;;4.13;3.60;;;19.70;91.40;;;;;;5042259;28;20464;-70
2022/05/23 01:28:04;;;;;;;3.60;3.30;;;19.60;91.20;;;;;;5034281;28;20466;-69
2022/05/23 01:30:33;;;;;;;3.23;3.03;;;19.60;91.30;;;;;;5045190;28;20787;-67
2022/05/23 01:33:19;;;;;;;4.07;3.77;;;19.60;91.30;;;;;;5037723;28;20676;-69
2022/05/23 01:35:45;;;;;;;4.80;3.63;;;19.60;91.30;;;;;;5032314;28;21116;-70
2022/05/23 01:38:11;;;;;;;3.70;3.40;;;19.60;91.20;;;;;;5044285;28;20227;-69
2022/05/23 01:40:58;;;;;;;3.30;3.03;;;19.50;91.40;;;;;;5063696;28;20455;-69
2022/05/23 01:43:25;;;;;;;3.63;3.33;;;19.40;91.40;;;;;;5048699;28;20455;-69
2022/05/23 01:46:11;;;;;;;3.33;3.03;;;19.40;91.40;;;;;;5054339;28;20434;-69
2022/05/23 01:48:55;;;;;;;4.10;3.47;;;19.40;91.40;;;;;;5036385;28;20924;-70
2022/05/23 01:51:22;;;;;;;4.20;3.73;;;19.40;91.40;;;;;;5050311;28;20475;-69
2022/05/23 01:53:49;;;;;;;6.23;3.23;;;19.40;91.50;;;;;;5044628;28;20538;-69
2022/05/23 01:56:16;;;;;;;3.73;3.33;;;19.40;91.40;;;;;;5050117;28;20471;-69
2022/05/23 02:01:32;;;;;;;5.80;3.57;;;19.30;91.40;;;;;;5062367;28;20447;-69
2022/05/23 02:03:58;;;;;;;3.83;3.43;;;19.30;91.50;;;;;;5029077;28;20980;-68
2022/05/23 02:06:29;;;;;;;3.80;3.40;;;19.30;91.60;;;;;;5027695;28;20216;-69
2022/05/23 02:08:59;;;;;;;4.33;4.03;;;19.20;91.60;;;;;;5025192;28;20550;-71
2022/05/23 02:11:31;;;;;;;6.30;3.47;;;19.20;91.60;;;;;;5037279;28;20458;-70
2022/05/23 02:13:58;;;;;;;3.37;3.07;;;19.20;91.60;;;;;;5038000;28;20987;-69
2022/05/23 02:16:32;;;;;;;5.43;3.40;;;19.20;91.70;;;;;;5039781;28;20523;-69
2022/05/23 02:19:00;;;;;;;4.10;3.70;;;19.20;91.70;;;;;;5036347;28;20534;-69
2022/05/23 02:21:26;;;;;;;3.87;3.10;;;19.20;91.70;;;;;;5050001;28;20447;-68
2022/05/23 02:23:53;;;;;;;3.30;3.00;;;19.10;91.80;;;;;;5050218;28;20519;-68
2022/05/23 02:26:19;;;;;;;3.47;3.13;;;19.10;91.70;;;;;;5049697;28;21025;-70
2022/05/23 02:28:56;;;;;;;3.27;2.97;;;19.10;91.70;;;;;;5049823;28;20223;-69
2022/05/23 02:31:26;;;;;;;4.20;3.47;;;19.10;91.70;;;;;;5049599;28;20446;-70
2022/05/23 02:34:02;;;;;;;4.47;3.57;;;19.10;91.70;;;;;;5049816;28;20503;-69
2022/05/23 02:36:36;;;;;;;3.13;2.77;;;19.10;91.80;;;;;;5047824;28;20443;-70
2022/05/23 02:39:04;;;;;;;3.67;3.37;;;19.10;91.80;;;;;;5045533;28;20493;-69
2022/05/23 02:41:30;;;;;;;4.67;3.67;;;19.10;91.90;;;;;;5049821;28;20442;-69
2022/05/23 02:43:56;;;;;;;3.10;2.80;;;19.00;91.80;;;;;;5049687;28;20461;-69
2022/05/23 02:46:24;;;;;;;3.97;3.57;;;19.00;91.90;;;;;;5049903;28;20589;-66
2022/05/23 02:48:52;;;;;;;3.50;3.20;;;19.00;91.80;;;;;;5049656;28;20454;-69
2022/05/23 02:51:18;;;;;;;3.40;3.10;;;19.00;91.90;;;;;;5049877;28;20447;-68
2022/05/23 02:53:48;;;;;;;3.40;3.10;;;18.90;92.30;;;;;;5026485;28;20302;-69
2022/05/23 02:56:16;;;;;;;2.93;2.73;;;18.90;91.90;;;;;;5048912;28;20505;-69
2022/05/23 02:58:41;;;;;;;3.70;3.10;;;18.90;92.00;;;;;;5045809;28;20539;-69
2022/05/23 03:01:09;;;;;;;3.60;3.40;;;18.90;92.00;;;;;;5048843;28;20990;-67
2022/05/23 03:03:36;;;;;;;3.73;3.33;;;18.90;92.00;;;;;;5049369;28;20449;-72
2022/05/23 03:06:05;;;;;;;5.10;3.47;;;18.90;92.20;;;;;;5066861;28;20466;-69
2022/05/23 03:08:32;;;;;;;3.63;3.33;;;18.90;92.00;;;;;;5048736;28;20450;-68
2022/05/23 03:11:00;;;;;;;3.70;3.23;;;18.90;91.90;;;;;;5049087;28;20525;-70
2022/05/23 03:13:27;;;;;;;3.60;3.30;;;18.80;91.80;;;;;;5041471;28;20570;-69
2022/05/23 03:15:53;;;;;;;3.30;3.07;;;18.80;91.80;;;;;;5034628;28;20474;-69
2022/05/23 03:18:19;;;;;;;3.30;2.93;;;18.80;92.00;;;;;;5035985;28;20463;-68
2022/05/23 03:20:53;;;;;;;3.97;3.47;;;18.80;92.10;;;;;;5032220;28;20216;-69
2022/05/23 03:28:49;;;;;;;3.30;3.00;;;18.80;92.30;;;;;;5042832;28;20482;-69
2022/05/23 03:31:15;;;;;;;3.80;3.37;;;18.80;92.40;;;;;;5065628;28;20490;-69
2022/05/23 03:33:41;;;;;;;3.20;3.00;;;18.70;92.30;;;;;;5049760;28;20220;-68
2022/05/23 03:36:08;;;;;;;4.80;3.50;;;18.70;92.40;;;;;;5048315;28;20462;-69
2022/05/23 03:38:35;;;;;;;6.03;3.37;;;18.70;92.50;;;;;;5048298;28;20216;-69
2022/05/23 03:41:06;;;;;;;3.40;3.10;;;18.70;92.40;;;;;;5046391;28;20450;-69
2022/05/23 03:43:32;;;;;;;3.50;3.23;;;18.70;92.40;;;;;;5050126;28;20458;-69
2022/05/23 03:46:13;;;;;;;2.97;2.77;;;18.70;92.60;;;;;;5030712;28;20785;-68
2022/05/23 03:48:39;;;;;;;3.80;3.50;;;18.70;92.60;;;;;;5048616;28;20215;-70
2022/05/23 03:51:05;;;;;;;4.37;3.87;;;18.70;92.60;;;;;;5049028;28;20458;-70
2022/05/23 03:53:31;;;;;;;3.23;2.97;;;18.70;92.60;;;;;;5064862;28;20454;-69
2022/05/23 03:56:03;;;;;;;3.43;3.03;;;18.70;92.70;;;;;;5040657;28;20458;-68
2022/05/23 03:58:34;;;;;;;3.13;2.90;;;18.70;92.70;;;;;;5036480;28;20456;-68
2022/05/23 04:01:25;;;;;;;3.10;2.80;;;18.70;92.70;;;;;;5047044;28;20892;-67
2022/05/23 04:04:15;;;;;;;8.80;3.47;;;18.60;92.80;;;;;;5028378;28;20454;-68
2022/05/23 04:07:03;;;;;;;6.40;3.17;;;18.60;93.20;;;;;;5029138;28;20451;-67
2022/05/23 04:09:36;;;;;;;4.23;3.87;;;18.60;93.10;;;;;;5026338;28;20506;-69
2022/05/23 04:12:03;;;;;;;3.83;3.53;;;18.50;93.20;;;;;;5016639;28;20479;-67
2022/05/23 04:14:29;;;;;;;4.17;3.63;;;18.50;93.40;;;;;;5017852;28;21055;-68
2022/05/23 04:16:55;;;;;;;2.90;2.70;;;18.50;93.20;;;;;;5035201;28;20453;-68
2022/05/23 04:19:21;;;;;;;2.97;2.77;;;18.50;93.20;;;;;;5017321;28;20304;-68
2022/05/23 04:22:09;;;;;;;4.77;3.93;;;18.50;93.10;;;;;;5044929;28;20484;-71
2022/05/23 04:24:44;;;;;;;4.60;3.70;;;18.50;93.20;;;;;;5037208;28;20564;-69
2022/05/23 04:27:10;;;;;;;3.47;3.10;;;18.50;93.10;;;;;;5064484;28;20517;-68
2022/05/23 04:29:41;;;;;;;3.27;2.97;;;18.50;93.10;;;;;;5041781;28;20222;-70
2022/05/23 04:35:15;;;;;;;4.27;2.90;;;18.50;93.10;;;;;;5042293;28;20459;-70
2022/05/23 04:37:45;;;;;;;7.90;3.20;;;18.50;93.30;;;;;;5046199;28;20461;-68
2022/05/23 04:40:20;;;;;;;3.43;2.83;;;18.50;93.70;;;;;;5047958;28;20454;-69
2022/05/23 04:42:47;;;;;;;3.40;3.10;;;18.50;93.20;;;;;;5047627;28;20453;-69
2022/05/23 04:45:14;;;;;;;4.20;3.77;;;18.50;93.50;;;;;;5030670;28;20460;-70
2022/05/23 04:50:33;;;;;;;4.40;3.50;;;18.50;93.90;;;;;;5039440;28;20461;-68
2022/05/23 04:53:05;;;;;;;3.60;3.30;;;18.50;93.50;;;;;;5037292;28;20462;-68
2022/05/23 04:55:36;;;;;;;4.00;3.63;;;18.50;93.60;;;;;;5041706;28;20880;-68
2022/05/23 04:58:04;;;;;;;3.77;3.47;;;18.50;93.60;;;;;;5039422;28;20459;-67
2022/05/23 05:00:30;;;;;;;4.77;4.07;;;18.50;94.00;;;;;;5038558;28;20453;-70
2022/05/23 05:03:00;;;;;;;5.30;3.90;;;18.50;94.00;;;;;;5045790;28;20447;-70
2022/05/23 05:05:52;;;;;;;4.20;3.80;;;18.50;94.40;;;;;;5041209;28;20484;-68
2022/05/23 05:08:20;;;;;;;3.87;3.57;;;18.50;94.40;;;;;;5036405;28;20462;-70
2022/05/23 05:10:49;;;;;;;4.40;4.00;;;18.50;94.60;;;;;;5042468;28;20462;-69
2022/05/23 05:13:14;;;;;;;5.07;4.00;;;18.50;94.70;;;;;;5011732;28;20451;-69
2022/05/23 05:15:40;;;;;;;5.07;4.33;;;18.40;94.90;;;;;;5044799;28;20255;-69
2022/05/23 05:18:12;;;;;;;3.97;3.67;;;18.40;94.60;;;;;;5026842;28;20232;-69
2022/05/23 05:20:44;;;;;;;3.73;3.43;;;18.50;94.80;;;;;;5029678;28;20811;-71
2022/05/23 05:23:33;;;;;;;6.23;4.40;;;18.50;95.20;;;;;;5030239;28;20565;-69
2022/05/23 05:26:13;;;;;;;4.73;4.27;;;18.40;96.30;;;;;;5041908;28;20986;-69
2022/05/23 05:28:39;;;;;;;4.30;3.70;;;18.30;97.10;;;;;;5043880;28;20443;-68
2022/05/23 05:31:14;;;;;;;4.37;3.97;;;18.10;97.30;;;;;;5044119;28;20538;-71
2022/05/23 05:33:48;;;;;;;6.20;4.10;;;18.10;97.60;;;;;;5037471;28;20224;-71
2022/05/23 05:36:19;;;;;;;4.60;3.97;;;18.10;97.60;;;;;;5050525;28;20482;-69
2022/05/23 05:39:12;;;;;;;7.73;4.27;;;18.10;97.70;;;;;;5042852;28;20545;-69
2022/05/23 05:41:48;;;;;;;3.73;3.43;;;18.20;97.70;;;;;;5022693;28;21003;-69
2022/05/23 05:44:19;;;;;;;4.60;3.83;;;18.20;97.30;;;;;;5038894;28;20550;-69
2022/05/23 05:46:55;;;;;;;4.77;4.37;;;18.20;97.80;;;;;;5061187;28;20504;-69
2022/05/23 05:49:28;;;;;;;4.43;3.70;;;18.20;98.00;;;;;;5035779;28;20459;-69
2022/05/23 05:52:01;;;;;;;8.00;4.27;;;18.20;97.80;;;;;;5061499;28;20463;-69
2022/05/23 05:54:39;;;;;;;4.23;3.67;;;18.20;97.80;;;;;;5035741;28;20461;-72
2022/05/23 05:57:12;;;;;;;3.93;3.53;;;18.20;97.90;;;;;;5034053;28;20459;-72
2022/05/23 05:59:38;;;;;;;4.17;3.80;;;18.20;97.80;;;;;;5032110;28;20478;-69
2022/05/23 06:02:07;;;;;;;5.20;3.83;;;18.20;97.60;;;;;;5039430;28;20473;-70
2022/05/23 06:04:34;;;;;;;7.00;4.03;;;18.10;97.80;;;;;;5041950;28;20448;-69
2022/05/23 06:12:50;;;;;;;4.57;3.80;;;18.10;98.30;;;;;;5040348;28;20462;-68
2022/05/23 06:15:44;;;;;;;5.77;4.13;;;18.10;99.00;;;;;;5042628;28;20519;-70
2022/05/23 06:18:10;;;;;;;6.37;4.30;;;18.10;98.80;;;;;;5034392;28;20455;-69
2022/05/23 06:20:38;;;;;;;6.10;5.60;;;18.10;98.60;;;;;;5033172;28;20811;-70
2022/05/23 06:23:05;;;;;;;6.20;4.50;;;18.20;98.40;;;;;;5038343;28;20549;-72
2022/05/23 06:25:32;;;;;;;6.03;3.93;;;18.20;98.80;;;;;;5035357;28;20477;-69
2022/05/23 06:28:02;;;;;;;4.90;3.80;;;18.20;99.30;;;;;;5049546;28;20455;-72
2022/05/23 06:30:29;;;;;;;5.20;3.37;;;18.20;98.80;;;;;;5060897;28;21011;-69
2022/05/23 06:33:20;;;;;;;3.63;3.33;;;18.30;99.60;;;;;;5044150;28;21024;-71
2022/05/23 06:36:12;;;;;;;4.90;4.40;;;18.30;99.50;;;;;;5034925;28;20463;-69
2022/05/23 06:38:39;;;;;;;4.30;3.90;;;18.30;99.40;;;;;;5044219;28;20455;-71
2022/05/23 06:41:06;;;;;;;4.00;3.67;;;18.30;99.50;;;;;;5043053;28;20463;-70
2022/05/23 06:43:58;;;;;;;4.60;3.90;;;18.40;99.50;;;;;;5052172;28;20901;-70
2022/05/23 06:46:42;;;;;;;5.27;4.50;;;18.40;99.60;;;;;;5037733;28;20992;-70
2022/05/23 06:49:28;;;;;;;4.17;3.80;;;18.40;99.70;;;;;;5041241;28;20459;-68
2022/05/23 06:52:03;;;;;;;7.73;4.23;;;18.40;99.40;;;;;;5041954;28;20466;-70
2022/05/23 06:54:42;;;;;;;3.90;3.50;;;18.50;99.90;;;;;;5039619;28;20520;-69
2022/05/23 06:57:12;;;;;;;7.43;4.10;;;18.50;99.40;;;;;;5036590;28;20462;-70
2022/05/23 06:59:38;;;;;;;4.87;4.47;;;18.50;99.20;;;;;;5034760;28;20581;-70
2022/05/23 07:02:07;;;;;;;4.43;3.93;;;18.50;99.50;;;;;;5037028;28;20852;-70
2022/05/23 07:13:20;;;;;;;4.13;3.50;;;18.70;99.90;;;;;;5037014;28;20455;-69
2022/05/23 07:15:48;;;;;;;5.17;4.67;;;18.80;99.90;;;;;;5035901;28;20823;-69
2022/05/23 07:18:17;;;;;;;3.97;3.67;;;18.80;99.90;;;;;;5015292;28;20208;-69
2022/05/23 07:20:46;;;;;;;5.47;3.70;;;18.80;99.90;;;;;;5041759;28;20835;-70
2022/05/23 07:23:21;;;;;;;4.13;3.50;;;18.90;99.90;;;;;;5043613;28;20870;-68
2022/05/23 07:25:53;;;;;;;4.30;3.87;;;18.90;99.90;;;;;;5058589;28;20490;-70
2022/05/23 07:28:44;;;;;;;4.00;3.60;;;19.00;99.90;;;;;;5040099;28;20474;-69
2022/05/23 07:31:11;;;;;;;4.73;3.83;;;19.10;99.90;;;;;;5040656;28;20878;-71
2022/05/23 07:33:41;;;;;;;4.30;4.00;;;19.10;99.90;;;;;;5051156;28;20452;-70
2022/05/23 07:36:14;;;;;;;4.57;3.70;;;19.20;99.90;;;;;;5039652;28;20466;-71
2022/05/23 07:38:42;;;;;;;4.33;3.93;;;19.20;99.90;;;;;;5042772;28;20528;-71
2022/05/23 07:41:14;;;;;;;4.50;4.10;;;19.30;99.90;;;;;;5049266;28;20534;-70
2022/05/23 07:43:41;;;;;;;4.03;3.73;;;19.30;99.90;;;;;;5042281;28;20454;-70
2022/05/23 07:46:13;;;;;;;3.73;3.43;;;19.40;99.90;;;;;;5037445;28;20458;-70
2022/05/23 07:48:47;;;;;;;4.27;3.57;;;19.50;99.90;;;;;;5037124;28;20996;-73
2022/05/23 07:51:16;;;;;;;4.00;3.60;;;19.60;99.90;;;;;;5036069;28;20462;-71
2022/05/23 08:02:04;;;;;;;4.83;3.00;;;19.90;99.90;;;;;;5036596;28;20757;-70
2022/05/23 08:04:30;;;;;;;3.53;3.23;;;19.90;99.90;;;;;;5023949;28;21005;-70
2022/05/23 08:06:59;;;;;;;4.30;4.00;;;20.00;99.90;;;;;;5039390;28;20508;-69
2022/05/23 08:09:25;;;;;;;2.93;2.73;;;20.00;99.90;;;;;;5028532;28;20447;-69
2022/05/23 08:11:59;;;;;;;3.40;3.20;;;20.10;99.90;;;;;;5035121;28;20218;-71
2022/05/23 08:14:26;;;;;;;3.97;3.67;;;20.10;99.90;;;;;;5036477;28;20765;-70
2022/05/23 08:17:00;;;;;;;4.60;4.17;;;20.20;99.90;;;;;;5040812;28;20444;-71
2022/05/23 08:19:32;;;;;;;3.97;3.53;;;20.20;99.90;;;;;;5041803;28;20435;-70
2022/05/23 08:22:09;;;;;;;4.10;3.80;;;20.30;99.90;;;;;;5042047;28;20455;-70
2022/05/23 08:24:39;;;;;;;3.80;3.50;;;20.40;99.90;;;;;;5043013;28;20975;-70
2022/05/23 08:27:06;;;;;;;4.30;4.00;;;20.40;99.90;;;;;;5038469;28;20541;-68
2022/05/23 08:29:36;;;;;;;4.33;3.30;;;20.60;99.90;;;;;;5033410;28;20572;-70
2022/05/23 08:32:10;;;;;;;4.50;4.00;;;20.70;99.90;;;;;;5032010;28;20459;-70
2022/05/23 08:34:40;;;;;;;3.50;3.30;;;20.80;99.90;;;;;;5035149;28;20572;-70
2022/05/23 08:37:08;;;;;;;4.87;4.47;;;20.90;99.90;;;;;;5040425;28;20987;-70
2022/05/23 08:39:34;;;;;;;5.30;4.63;;;21.00;99.90;;;;;;5030474;28;20482;-70
2022/05/23 08:42:23;;;;;;;3.80;3.50;;;21.10;99.90;;;;;;5033921;28;20217;-71
2022/05/23 08:45:25;;;;;;;3.87;3.57;;;21.20;99.90;;;;;;5038227;28;20573;-71
2022/05/23 08:47:51;;;;;;;5.17;3.93;;;21.30;99.90;;;;;;5030855;28;20547;-70
2022/05/23 08:50:43;;;;;;;3.33;3.13;;;21.50;99.90;;;;;;5031875;28;20453;-70
2022/05/23 08:53:17;;;;;;;4.33;4.03;;;21.60;99.90;;;;;;5033252;28;20450;-69
2022/05/23 08:56:29;;;;;;;4.37;4.07;;;21.80;99.90;;;;;;5035840;28;20469;-69
2022/05/23 08:59:35;;;;;;;4.10;3.77;;;21.90;99.90;;;;;;5031883;28;21135;-69
2022/05/23 09:02:09;;;;;;;3.67;3.40;;;22.10;99.90;;;;;;5038859;28;20466;-70
2022/05/23 09:05:02;;;;;;;3.80;3.50;;;22.20;99.90;;;;;;5035099;28;20461;-71
2022/05/23 09:07:41;;;;;;;3.37;3.07;;;22.40;99.90;;;;;;5037128;28;20453;-69
2022/05/23 09:10:36;;;;;;;3.40;3.10;;;22.60;99.90;;;;;;5040318;28;20861;-70
2022/05/23 09:13:04;;;;;;;2.57;2.30;;;22.80;99.90;;;;;;5044554;28;20537;-71
2022/05/23 09:15:32;;;;;;;3.80;2.70;;;23.10;99.90;;;;;;5040056;28;20867;-70
2022/05/23 09:18:03;;;;;;;2.50;2.30;;;23.20;99.40;;;;;;5040622;28;20462;-71
2022/05/23 09:20:44;;;;;;;3.67;2.40;;;23.30;99.50;;;;;;5038343;28;20454;-69
2022/05/23 09:23:24;;;;;;;2.70;2.50;;;23.40;99.40;;;;;;5039239;28;20823;-71
2022/05/23 09:25:51;;;;;;;3.70;3.07;;;23.70;99.40;;;;;;5038562;28;20466;-70
2022/05/23 09:28:31;;;;;;;3.13;2.83;;;23.70;99.30;;;;;;5057630;28;20462;-70
2022/05/23 09:31:22;;;;;;;6.90;2.97;;;23.80;99.10;;;;;;5045084;28;20534;-69
2022/05/23 09:33:51;;;;;;;2.60;2.40;;;24.00;98.70;;;;;;5036242;28;20462;-74
2022/05/23 09:36:30;;;;;;;2.40;2.20;;;24.10;98.80;;;;;;5041682;28;20465;-70
2022/05/23 09:39:00;;;;;;;4.50;2.93;;;24.20;98.70;;;;;;5042178;28;20456;-72
2022/05/23 09:50:08;;;;;;;3.47;3.17;;;24.70;98.60;;;;;;5023382;28;20463;-70
2022/05/23 09:52:57;;;;;;;5.00;4.23;;;24.80;98.20;;;;;;5017080;28;20450;-70
2022/05/23 09:55:32;;;;;;;3.43;2.93;;;24.80;98.20;;;;;;5015945;28;20485;-73
2022/05/23 09:58:05;;;;;;;4.10;3.20;;;24.80;98.70;;;;;;5016875;28;20450;-70
2022/05/23 10:00:35;;;;;;;4.03;3.63;;;24.90;98.50;;;;;;4996996;28;20486;-71
2022/05/23 10:03:01;;;;;;;5.20;3.20;;;25.00;97.80;;;;;;5015893;28;20467;-71
2022/05/23 10:05:50;;;;;;;3.80;3.50;;;25.00;98.00;;;;;;5010488;28;20521;-71
2022/05/23 10:08:53;;;;;;;3.33;3.10;;;25.00;98.20;;;;;;5021584;28;20231;-71
2022/05/23 10:11:57;;;;;;;3.40;3.10;;;25.10;98.30;;;;;;4983528;28;20455;-72
2022/05/23 10:14:24;;;;;;;3.47;3.17;;;25.20;98.20;;;;;;5035782;28;20492;-72
2022/05/23 10:16:54;;;;;;;3.20;2.90;;;25.30;98.00;;;;;;5040606;28;20827;-71
2022/05/23 10:19:31;;;;;;;5.33;3.93;;;25.40;98.10;;;;;;5024062;28;20501;-70
2022/05/23 10:22:15;;;;;;;3.93;3.37;;;25.50;98.30;;;;;;5045424;28;20826;-70
2022/05/23 10:25:11;;;;;;;3.20;2.97;;;25.60;98.10;;;;;;5040628;28;20450;-69
2022/05/23 10:27:47;;;;;;;3.70;3.40;;;25.70;98.60;;;;;;5026134;28;20457;-70
2022/05/23 10:30:17;;;;;;;4.00;3.67;;;25.90;98.10;;;;;;5058083;28;20454;-69
2022/05/23 10:32:48;;;;;;;4.23;3.47;;;26.00;97.70;;;;;;5042267;28;20458;-71
2022/05/23 10:35:31;;;;;;;3.80;3.50;;;26.00;97.70;;;;;;5039107;28;20495;-71
2022/05/23 10:42:07;;;;;;;4.43;4.03;;;26.10;98.00;;;;;;5052314;28;20446;-71
2022/05/23 10:43:51;;;;;;;3.87;3.43;;;26.30;97.70;;;;;;5039561;28;20451;-69
2022/05/23 10:46:17;;;;;;;7.17;4.00;;;26.30;97.60;;;;;;5015358;28;20442;-71
2022/05/23 10:48:57;;;;;;;3.10;2.90;;;26.40;97.60;;;;;;5051029;28;21235;-72
2022/05/23 10:51:39;;;;;;;4.63;4.20;;;26.40;97.70;;;;;;5040576;28;20216;-72
2022/05/23 10:54:11;;;;;;;4.13;3.83;;;26.40;97.40;;;;;;5019210;28;20455;-71
2022/05/23 10:57:01;;;;;;;3.80;3.50;;;26.30;97.40;;;;;;5030154;28;20529;-72
2022/05/23 10:59:53;;;;;;;4.60;4.20;;;26.30;97.40;;;;;;5030230;28;21440;-70
2022/05/23 11:02:46;;;;;;;4.00;3.70;;;26.30;97.30;;;;;;5041254;28;20533;-69
2022/05/23 11:05:37;;;;;;;4.10;3.80;;;26.30;97.00;;;;;;5042642;28;20456;-69
2022/05/23 11:08:25;;;;;;;4.70;3.60;;;26.20;96.80;;;;;;5022273;28;20447;-71
2022/05/23 11:10:57;;;;;;;3.60;3.30;;;26.20;97.10;;;;;;5038937;28;20506;-70
2022/05/23 11:13:26;;;;;;;3.73;3.43;;;26.20;97.20;;;;;;5046779;28;20450;-69
2022/05/23 11:16:06;;;;;;;5.87;3.73;;;26.20;97.10;;;;;;5043655;28;20486;-71
2022/05/23 11:19:14;;;;;;;5.33;4.87;;;26.20;97.10;;;;;;5025423;28;20455;-70
2022/05/23 11:21:58;;;;;;;3.50;3.30;;;26.20;97.10;;;;;;5039726;28;20473;-70
2022/05/23 11:24:38;;;;;;;3.50;3.30;;;26.10;97.00;;;;;;5035192;28;20465;-71
2022/05/23 11:35:52;;;;;;;6.40;3.87;;;26.20;97.70;;;;;;5040165;28;20500;-70
2022/05/23 11:38:19;;;;;;;4.77;4.30;;;26.20;97.60;;;;;;5034447;28;20481;-71
2022/05/23 11:41:11;;;;;;;4.60;4.20;;;26.20;97.60;;;;;;5036356;28;21115;-70
2022/05/23 11:43:37;;;;;;;4.30;3.90;;;26.10;97.90;;;;;;5039458;28;20492;-71
2022/05/23 11:46:11;;;;;;;5.30;4.40;;;26.20;98.00;;;;;;5035089;28;20466;-71
2022/05/23 11:48:56;;;;;;;4.80;4.40;;;26.20;98.10;;;;;;5034729;28;20234;-70
2022/05/23 11:51:24;;;;;;;4.97;4.57;;;26.20;98.20;;;;;;5034852;28;20458;-69
2022/05/23 11:53:56;;;;;;;4.70;4.40;;;26.10;98.30;;;;;;5013985;28;20526;-70
2022/05/23 11:56:43;;;;;;;6.00;5.37;;;26.20;98.30;;;;;;5047341;28;20246;-70
2022/05/23 11:59:32;;;;;;;4.70;4.20;;;26.10;98.50;;;;;;5036951;28;20461;-69
2022/05/23 12:02:06;;;;;;;4.60;4.30;;;26.10;98.50;;;;;;5032560;28;20843;-72
2022/05/23 12:04:35;;;;;;;4.33;4.03;;;26.10;98.60;;;;;;5030177;28;20457;-70
2022/05/23 12:07:02;;;;;;;5.20;4.70;;;26.10;98.60;;;;;;5044006;28;20458;-69
2022/05/23 12:09:32;;;;;;;4.47;4.17;;;26.10;98.70;;;;;;5053508;28;20469;-71
2022/05/23 12:12:39;;;;;;;5.13;4.73;;;26.10;98.90;;;;;;5041370;28;20457;-70
2022/05/23 12:15:05;;;;;;;5.67;5.17;;;26.00;98.70;;;;;;5044669;28;20470;-69
2022/05/23 12:17:33;;;;;;;5.03;4.63;;;26.10;98.90;;;;;;5033934;28;20450;-69
2022/05/23 12:20:05;;;;;;;5.13;4.60;;;26.00;99.10;;;;;;5035269;28;20220;-70
2022/05/23 12:22:57;;;;;;;5.57;5.07;;;26.00;99.00;;;;;;5040036;28;20450;-71
2022/05/23 12:25:25;;;;;;;5.40;5.00;;;26.00;99.10;;;;;;5021354;28;20899;-70
2022/05/23 12:27:51;;;;;;;4.37;4.07;;;26.00;99.20;;;;;;5036714;28;20503;-70
2022/05/23 12:30:22;;;;;;;4.20;3.90;;;26.00;99.30;;;;;;5038875;28;20537;-72
2022/05/23 12:32:51;;;;;;;6.27;4.60;;;26.00;99.60;;;;;;5037770;28;20266;-70
2022/05/23 12:35:20;;;;;;;4.63;4.33;;;26.00;99.50;;;;;;5021109;28;20469;-72
2022/05/23 12:38:08;;;;;;;9.23;4.87;;;26.00;99.40;;;;;;5044608;28;20457;-69
2022/05/23 12:40:46;;;;;;;4.80;4.37;;;26.00;99.50;;;;;;5040980;28;20474;-68
2022/05/23 12:43:25;;;;;;;4.60;4.20;;;26.00;99.60;;;;;;5045328;28;20446;-70
2022/05/23 12:46:32;;;;;;;5.00;4.50;;;26.00;99.70;;;;;;5038145;28;20886;-69
2022/05/23 12:49:19;;;;;;;4.83;4.33;;;26.00;99.70;;;;;;5009151;28;20485;-70
2022/05/23 12:51:50;;;;;;;5.10;4.60;;;25.90;99.80;;;;;;5039387;28;20478;-70
2022/05/23 12:54:33;;;;;;;6.20;5.60;;;25.90;99.90;;;;;;5015914;28;20606;-70
2022/05/23 12:57:14;;;;;;;5.70;5.20;;;25.90;99.90;;;;;;5020232;28;20901;-70
2022/05/23 12:59:42;;;;;;;6.40;5.87;;;25.80;99.90;;;;;;5043113;28;20469;-72
2022/05/23 13:02:43;;;;;;;6.80;5.10;;;25.80;99.90;;;;;;5030606;28;20452;-72
2022/05/23 13:05:14;;;;;;;5.13;4.73;;;25.80;99.90;;;;;;5013000;28;20455;-71
2022/05/23 13:08:06;;;;;;;5.23;4.40;;;25.80;99.90;;;;;;5023465;28;20454;-70
2022/05/23 13:10:39;;;;;;;7.33;5.90;;;25.80;99.90;;;;;;5020806;28;20455;-73
2022/05/23 13:13:44;;;;;;;5.93;5.47;;;25.70;99.90;;;;;;5028887;28;20489;-70
2022/05/23 13:16:24;;;;;;;5.60;5.10;;;25.70;99.90;;;;;;5056747;28;20478;-70
2022/05/23 13:27:18;;;;;;;7.10;5.57;;;25.50;99.90;;;;;;5035267;28;20474;-70
2022/05/23 13:29:43;;;;;;;7.10;6.37;;;25.50;99.90;;;;;;5035043;28;20449;-70
2022/05/23 13:32:13;;;;;;;5.80;5.40;;;25.60;99.90;;;;;;5036259;28;20489;-70
2022/05/23 13:34:42;;;;;;;6.87;6.10;;;25.60;99.90;;;;;;5040402;28;21079;-71
2022/05/23 13:37:09;;;;;;;6.70;5.07;;;25.60;99.90;;;;;;5039330;28;20453;-71
2022/05/23 13:39:46;;;;;;;6.83;6.00;;;25.70;99.90;;;;;;5042505;28;20524;-71
2022/05/23 13:42:24;;;;;;;5.20;4.80;;;25.70;99.90;;;;;;5038285;28;20457;-69
2022/05/23 13:44:50;;;;;;;5.60;5.10;;;25.70;99.90;;;;;;5037085;28;21007;-70
2022/05/23 13:47:24;;;;;;;9.30;4.83;;;25.80;99.90;;;;;;5039619;28;20438;-70
2022/05/23 13:50:05;;;;;;;6.37;5.90;;;25.80;99.90;;;;;;5038182;28;20454;-69
2022/05/23 13:52:40;;;;;;;4.93;4.63;;;25.90;99.90;;;;;;5043753;28;20474;-73
2022/05/23 13:55:19;;;;;;;7.67;5.57;;;25.90;99.90;;;;;;5037366;28;20486;-72
2022/05/23 13:57:52;;;;;;;4.93;4.53;;;26.00;99.90;;;;;;5058444;28;20919;-73
2022/05/23 14:00:22;;;;;;;7.03;5.23;;;26.00;99.90;;;;;;5041513;28;20454;-71
2022/05/23 14:02:51;;;;;;;5.80;5.30;;;26.00;99.90;;;;;;5042098;28;20490;-69
2022/05/23 14:05:17;;;;;;;5.90;5.37;;;26.00;99.90;;;;;;5044640;28;20891;-71
2022/05/23 14:07:43;;;;;;;5.93;5.43;;;26.10;99.90;;;;;;5033922;28;20485;-70
2022/05/23 14:10:16;;;;;;;7.90;5.50;;;26.20;99.90;;;;;;5034000;28;20457;-70
2022/05/23 14:12:47;;;;;;;6.90;5.00;;;26.20;99.90;;;;;;5039911;28;20499;-69
2022/05/23 14:15:13;;;;;;;5.93;4.97;;;26.30;99.90;;;;;;5030948;28;20485;-69
2022/05/23 14:17:43;;;;;;;6.00;5.40;;;26.40;99.90;;;;;;5049465;28;20445;-70
2022/05/23 14:20:14;;;;;;;6.33;5.83;;;26.40;99.90;;;;;;5036352;28;20474;-73
2022/05/23 14:22:40;;;;;;;5.67;5.17;;;26.60;99.90;;;;;;5057845;28;20449;-71
2022/05/23 14:25:22;;;;;;;10.53;5.33;;;26.80;99.90;;;;;;5028848;28;20250;-71
2022/05/23 14:27:53;;;;;;;7.23;4.77;;;26.80;99.90;;;;;;5032015;28;20545;-71
2022/05/23 14:30:25;;;;;;;8.93;4.57;;;26.90;99.90;;;;;;5025719;28;20235;-71
2022/05/23 14:33:01;;;;;;;7.00;4.80;;;26.90;99.90;;;;;;5014431;28;20524;-72